Time;durP1;ratioP1;P1;durP2;ratioP2;P2;SDS_P1;SDS_P2;PMS_P1;PMS_P2;Temp;Humidity;BMP_temperature;BMP_pressure;BME280_temperature;BME280_humidity;BME280_pressure;Samples;Min_cycle;Max_cycle;Signal;HPM_P1;HPM_P2
2022/09/04 00:02:07;;;;;;;;;;;;;;;13.03;57.83;101001.66;1680125;85;20169;-72
2022/09/04 00:04:55;;;;;;;;;;;;;;;13.00;57.88;101000.67;1679898;85;21112;-71
2022/09/04 00:07:29;;;;;;;;;;;;;;;12.98;57.95;101006.70;1680055;84;20162;-72
2022/09/04 00:10:13;;;;;;;;;;;;;;;12.97;58.01;101009.05;1659182;85;20198;-71
2022/09/04 00:13:04;;;;;;;;;;;;;;;12.96;58.09;101004.69;1679956;85;20401;-72
2022/09/04 00:15:34;;;;;;;;;;;;;;;12.93;58.13;101000.52;1681377;85;20518;-71
2022/09/04 00:18:12;;;;;;;;;;;;;;;12.91;58.19;101000.36;1681117;85;21021;-71
2022/09/04 00:20:41;;;;;;;;;;;;;;;12.88;58.28;101000.67;1680912;85;20491;-71
2022/09/04 00:23:17;;;;;;;;;;;;;;;12.86;58.31;101004.04;1681325;85;20512;-71
2022/09/04 00:25:58;;;;;;;;;;;;;;;12.84;58.37;101004.73;1681225;84;20198;-71
2022/09/04 00:28:34;;;;;;;;;;;;;;;12.81;58.43;101003.70;1668044;85;20210;-72
2022/09/04 00:31:24;;;;;;;;;;;;;;;12.79;58.49;101011.08;1680984;85;21289;-71
2022/09/04 00:34:06;;;;;;;;;;;;;;;12.78;58.52;101010.73;1680931;85;20191;-71
2022/09/04 00:36:30;;;;;;;;;;;;;;;12.75;58.58;101008.40;1680208;85;20187;-72
2022/09/04 00:38:59;;;;;;;;;;;;;;;12.75;58.64;101013.75;1681165;84;20193;-71
2022/09/04 00:41:31;;;;;;;;;;;;;;;12.73;58.67;101019.30;1681130;85;20602;-71
2022/09/04 00:44:16;;;;;;;;;;;;;;;12.70;58.73;101016.92;1681067;84;21158;-71
2022/09/04 00:47:09;;;;;;;;;;;;;;;12.69;58.78;101021.97;1680823;85;20538;-71
2022/09/04 00:49:48;;;;;;;;;;;;;;;12.65;58.83;101019.28;1681128;84;20207;-71
2022/09/04 00:52:33;;;;;;;;;;;;;;;12.64;58.90;101026.13;1678805;85;20259;-71
2022/09/04 00:55:08;;;;;;;;;;;;;;;12.63;58.97;101024.48;1664343;85;20195;-71
2022/09/04 00:58:14;;;;;;;;;;;;;;;12.59;59.02;101021.80;1681212;85;21717;-71
2022/09/04 01:00:40;;;;;;;;;;;;;;;12.53;59.08;101020.11;1681214;85;20168;-71
2022/09/04 01:03:24;;;;;;;;;;;;;;;12.49;59.16;101022.78;1654081;85;20523;-71
2022/09/04 01:06:06;;;;;;;;;;;;;;;12.45;59.21;101029.47;1681271;84;20207;-71
2022/09/04 01:08:54;;;;;;;;;;;;;;;12.43;59.28;101030.15;1659373;85;20201;-71
2022/09/04 01:11:27;;;;;;;;;;;;;;;12.41;59.36;101028.16;1670899;84;21025;-71
2022/09/04 01:14:13;;;;;;;;;;;;;;;12.38;59.42;101028.49;1681034;84;20207;-71
2022/09/04 01:16:49;;;;;;;;;;;;;;;12.34;59.47;101029.83;1681162;84;20523;-72
2022/09/04 01:19:37;;;;;;;;;;;;;;;12.31;59.56;101026.64;1681235;84;20585;-71
2022/09/04 01:22:27;;;;;;;;;;;;;;;12.27;59.62;101028.81;1677029;85;36925;-71
2022/09/04 01:25:13;;;;;;;;;;;;;;;12.26;59.71;101028.47;1650421;85;22001;-71
2022/09/04 01:27:55;;;;;;;;;;;;;;;12.26;59.77;101031.14;1681039;85;20199;-71
2022/09/04 01:30:20;;;;;;;;;;;;;;;12.25;59.83;101033.47;1680811;84;20175;-71
2022/09/04 01:32:59;;;;;;;;;;;;;;;12.26;59.92;101032.48;1680961;85;20206;-72
2022/09/04 01:35:29;;;;;;;;;;;;;;;12.25;59.99;101037.98;1680907;85;20215;-71
2022/09/04 01:38:15;;;;;;;;;;;;;;;12.21;60.04;101029.45;1681090;85;21750;-71
2022/09/04 01:40:44;;;;;;;;;;;;;;;12.22;60.11;101031.13;1681163;85;20185;-71
2022/09/04 01:43:17;;;;;;;;;;;;;;;12.19;60.16;101032.80;1681298;84;20547;-71
2022/09/04 01:45:48;;;;;;;;;;;;;;;12.17;60.24;101032.64;1681112;85;20255;-71
2022/09/04 01:48:17;;;;;;;;;;;;;;;12.12;60.31;101033.63;1681073;84;20199;-71
2022/09/04 01:50:43;;;;;;;;;;;;;;;12.08;60.37;101034.45;1681201;85;21071;-71
2022/09/04 01:53:16;;;;;;;;;;;;;;;12.04;60.42;101033.09;1681339;85;20219;-71
2022/09/04 01:55:51;;;;;;;;;;;;;;;12.01;60.48;101028.92;1681070;85;20222;-71
2022/09/04 01:58:54;;;;;;;;;;;;;;;11.99;60.52;101032.27;1663346;85;20491;-71
2022/09/04 02:01:37;;;;;;;;;;;;;;;11.96;60.59;101028.56;1681305;84;20183;-71
2022/09/04 02:04:06;;;;;;;;;;;;;;;11.94;60.65;101033.25;1680589;85;21739;-71
2022/09/04 02:06:42;;;;;;;;;;;;;;;11.91;60.74;101030.06;1680584;84;20198;-71
2022/09/04 02:09:15;;;;;;;;;;;;;;;11.89;60.79;101028.07;1669492;85;20529;-71
2022/09/04 02:11:47;;;;;;;;;;;;;;;11.88;60.89;101030.39;1673754;84;20222;-71
2022/09/04 02:14:33;;;;;;;;;;;;;;;11.86;60.94;101023.02;1680981;85;20198;-71
2022/09/04 02:17:07;;;;;;;;;;;;;;;11.87;61.03;101023.37;1681045;85;21756;-71
2022/09/04 02:19:53;;;;;;;;;;;;;;;11.87;61.09;101020.20;1681105;85;20483;-71
2022/09/04 02:22:44;;;;;;;;;;;;;;;11.86;61.13;101019.02;1680854;84;20179;-71
2022/09/04 02:25:26;;;;;;;;;;;;;;;11.86;61.23;101023.02;1681106;85;20195;-71
2022/09/04 02:28:12;;;;;;;;;;;;;;;11.81;61.31;101020.02;1681124;85;20633;-71
2022/09/04 02:31:15;;;;;;;;;;;;;;;11.78;61.40;101017.67;1680542;85;21266;-71
2022/09/04 02:33:51;;;;;;;;;;;;;;;11.75;61.47;101025.49;1680886;84;20202;-71
2022/09/04 02:36:23;;;;;;;;;;;;;;;11.72;61.56;101023.65;1679278;85;20523;-71
2022/09/04 02:39:01;;;;;;;;;;;;;;;11.69;61.62;101027.95;1681102;85;20487;-71
2022/09/04 02:41:49;;;;;;;;;;;;;;;11.64;61.69;101023.61;1681248;84;20190;-71
2022/09/04 02:44:14;;;;;;;;;;;;;;;11.59;61.78;101014.73;1678564;84;21388;-71
2022/09/04 02:47:03;;;;;;;;;;;;;;;11.54;61.84;101012.53;1616217;87;20665;-71
2022/09/04 02:49:42;;;;;;;;;;;;;;;11.50;61.90;101017.86;1679321;85;20183;-71
2022/09/04 02:52:32;;;;;;;;;;;;;;;11.46;61.96;101021.88;1680869;85;20175;-71
2022/09/04 02:55:15;;;;;;;;;;;;;;;11.43;62.03;101018.69;1663781;85;20235;-71
2022/09/04 02:58:04;;;;;;;;;;;;;;;11.38;62.08;101012.48;1681074;84;20600;-72
2022/09/04 03:00:53;;;;;;;;;;;;;;;11.35;62.16;101019.48;1679494;84;20507;-72
2022/09/04 03:03:22;;;;;;;;;;;;;;;11.30;62.23;101015.10;1676991;85;20225;-71
2022/09/04 03:06:05;;;;;;;;;;;;;;;11.29;62.28;101016.13;1671143;85;20187;-71
2022/09/04 03:08:40;;;;;;;;;;;;;;;11.27;62.35;101027.94;1676729;84;20189;-72
2022/09/04 03:11:40;;;;;;;;;;;;;;;11.21;62.42;101021.41;1668168;85;21133;-71
2022/09/04 03:14:33;;;;;;;;;;;;;;;11.17;62.48;101018.71;1599854;87;20581;-71
2022/09/04 03:17:18;;;;;;;;;;;;;;;11.15;62.55;101027.39;1616434;88;20263;-71
2022/09/04 03:19:52;;;;;;;;;;;;;;;11.14;62.62;101023.04;1664727;85;20515;-72
2022/09/04 03:22:25;;;;;;;;;;;;;;;11.12;62.68;101023.67;1650761;84;20163;-71
2022/09/04 03:25:00;;;;;;;;;;;;;;;11.10;62.77;101026.17;1658103;85;21145;-71
2022/09/04 03:27:26;;;;;;;;;;;;;;;11.11;62.83;101025.19;1703691;83;20185;-71
2022/09/04 03:30:02;;;;;;;;;;;;;;;11.06;62.91;101026.98;1701941;84;20200;-71
2022/09/04 03:32:50;;;;;;;;;;;;;;;11.03;62.98;101028.14;1700638;83;20207;-71
2022/09/04 03:35:26;;;;;;;;;;;;;;;11.01;63.07;101027.45;1700777;83;20514;-71
2022/09/04 03:38:12;;;;;;;;;;;;;;;10.99;63.18;101029.94;1682056;84;21078;-71
2022/09/04 03:40:41;;;;;;;;;;;;;;;10.99;63.23;101037.95;1697756;83;20159;-71
2022/09/04 03:43:34;;;;;;;;;;;;;;;10.97;63.32;101029.27;1697734;84;20467;-71
2022/09/04 03:46:07;;;;;;;;;;;;;;;10.98;63.40;101033.59;1689739;84;20146;-71
2022/09/04 03:48:51;;;;;;;;;;;;;;;10.93;63.49;101030.58;1691937;83;20457;-71
2022/09/04 03:51:35;;;;;;;;;;;;;;;10.91;63.58;101027.21;1696897;83;21169;-71
2022/09/04 03:54:17;;;;;;;;;;;;;;;10.89;63.66;101033.22;1697463;84;20475;-71
2022/09/04 03:56:56;;;;;;;;;;;;;;;10.87;63.73;101032.55;1697082;83;20599;-71
2022/09/04 03:59:46;;;;;;;;;;;;;;;10.85;63.81;101037.19;1691430;83;20522;-71
2022/09/04 04:02:19;;;;;;;;;;;;;;;10.83;63.90;101040.52;1654245;84;20162;-71
2022/09/04 04:05:11;;;;;;;;;;;;;;;10.81;64.00;101042.48;1676315;84;22113;-71
2022/09/04 04:07:52;;;;;;;;;;;;;;;10.79;64.07;101041.81;1688432;84;20443;-71
2022/09/04 04:10:45;;;;;;;;;;;;;;;10.76;64.17;101044.80;1699567;84;20462;-72
2022/09/04 04:13:21;;;;;;;;;;;;;;;10.74;64.23;101049.44;1700999;83;20195;-71
2022/09/04 04:16:00;;;;;;;;;;;;;;;10.71;64.33;101037.75;1682789;84;20427;-71
2022/09/04 04:18:38;;;;;;;;;;;;;;;10.72;64.43;101039.43;1700907;84;21135;-71
2022/09/04 04:21:14;;;;;;;;;;;;;;;10.69;64.53;101033.91;1700929;83;20640;-71
2022/09/04 04:24:17;;;;;;;;;;;;;;;10.69;64.58;101038.41;1700930;83;20190;-71
2022/09/04 04:27:03;;;;;;;;;;;;;;;10.68;64.68;101038.06;1692932;84;20496;-71
2022/09/04 04:29:41;;;;;;;;;;;;;;;10.67;64.75;101046.55;1669732;83;20165;-71
2022/09/04 04:32:29;;;;;;;;;;;;;;;10.66;64.85;101049.39;1678451;85;21185;-71
2022/09/04 04:35:07;;;;;;;;;;;;;;;10.65;64.93;101055.71;1677737;85;20187;-71
2022/09/04 04:38:08;;;;;;;;;;;;;;;10.65;65.02;101057.05;1678190;85;20168;-71
2022/09/04 04:40:59;;;;;;;;;;;;;;;10.65;65.08;101059.71;1678284;84;20350;-71
2022/09/04 04:43:54;;;;;;;;;;;;;;;10.74;65.23;101060.11;1665396;84;20148;-71
2022/09/04 04:46:46;;;;;;;;;;;;;;;11.90;65.66;101063.13;1659832;85;22033;-71
2022/09/04 04:49:26;;;;;;;;;;;;;;;13.18;65.33;101068.78;1678053;84;20183;-71
2022/09/04 04:52:05;;;;;;;;;;;;;;;14.34;64.87;101067.48;1677888;85;20211;-71
2022/09/04 04:54:43;;;;;;;;;;;;;;;15.12;64.38;101068.52;1658222;84;20180;-71
2022/09/04 04:57:16;;;;;;;;;;;;;;;15.76;63.88;101079.61;1678132;85;20191;-71
2022/09/04 04:59:46;;;;;;;;;;;;;;;16.43;63.38;101068.89;1678200;85;21185;-71
2022/09/04 05:02:20;;;;;;;;;;;;;;;17.00;62.97;101076.08;1668377;85;20263;-72
2022/09/04 05:05:01;;;;;;;;;;;;;;;17.57;62.48;101073.70;1668998;85;20217;-71
2022/09/04 05:08:01;;;;;;;;;;;;;;;18.06;61.69;101074.36;1650197;85;20397;-71
2022/09/04 05:10:46;;;;;;;;;;;;;;;18.40;61.11;101078.84;1624211;85;20180;-72
2022/09/04 05:13:33;;;;;;;;;;;;;;;18.84;60.33;101085.05;1658625;85;21088;-72
2022/09/04 05:16:21;;;;;;;;;;;;;;;19.46;59.49;101088.68;1670531;85;20481;-72
2022/09/04 05:19:03;;;;;;;;;;;;;;;19.67;58.59;101083.53;1673522;84;20187;-72
2022/09/04 05:21:58;;;;;;;;;;;;;;;20.04;57.71;101094.14;1677249;85;20227;-72
2022/09/04 05:24:40;;;;;;;;;;;;;;;19.54;56.69;101093.88;1667798;85;20195;-72
2022/09/04 05:27:13;;;;;;;;;;;;;;;18.76;56.29;101092.00;1678412;85;21017;-72
2022/09/04 05:29:46;;;;;;;;;;;;;;;18.03;56.68;101096.36;1676952;84;20186;-72
2022/09/04 05:32:32;;;;;;;;;;;;;;;17.75;57.08;101095.60;1669493;85;20483;-72
2022/09/04 05:35:14;;;;;;;;;;;;;;;17.35;57.22;101106.11;1675228;85;20494;-72
2022/09/04 05:38:03;;;;;;;;;;;;;;;17.08;57.44;101104.76;1675513;85;20491;-72
2022/09/04 05:40:39;;;;;;;;;;;;;;;17.03;57.55;101107.22;1690051;83;21121;-72
2022/09/04 05:43:27;;;;;;;;;;;;;;;16.63;57.46;101115.44;1686861;83;20191;-72
2022/09/04 05:46:08;;;;;;;;;;;;;;;16.50;57.70;101114.23;1684013;84;20210;-72
2022/09/04 05:48:37;;;;;;;;;;;;;;;16.50;57.72;101119.61;1688627;84;20174;-72
2022/09/04 05:51:13;;;;;;;;;;;;;;;16.46;57.69;101126.43;1688588;85;20211;-72
2022/09/04 05:53:54;;;;;;;;;;;;;;;16.61;57.80;101133.62;1686340;84;21109;-72
2022/09/04 05:56:40;;;;;;;;;;;;;;;16.62;57.69;101127.22;1641819;85;20234;-72
2022/09/04 05:59:28;;;;;;;;;;;;;;;16.56;57.74;101132.03;1685114;85;20190;-72
2022/09/04 06:02:29;;;;;;;;;;;;;;;16.43;57.73;101140.24;1679561;85;20364;-72
2022/09/04 06:05:01;;;;;;;;;;;;;;;16.56;57.83;101136.08;1688000;85;20515;-72
2022/09/04 06:07:53;;;;;;;;;;;;;;;16.84;57.86;101128.91;1662869;85;21219;-72
2022/09/04 06:10:26;;;;;;;;;;;;;;;16.91;57.74;101134.69;1686153;83;20421;-72
2022/09/04 06:13:02;;;;;;;;;;;;;;;16.89;57.71;101137.23;1688647;85;20186;-73
2022/09/04 06:15:41;;;;;;;;;;;;;;;16.87;57.64;101139.30;1688075;84;20202;-72
2022/09/04 06:18:11;;;;;;;;;;;;;;;16.84;57.56;101138.34;1688156;85;20206;-73
2022/09/04 06:20:55;;;;;;;;;;;;;;;16.83;57.59;101132.62;1688442;85;21112;-72
2022/09/04 06:23:37;;;;;;;;;;;;;;;16.86;57.69;101131.72;1688028;83;20187;-72
2022/09/04 06:26:27;;;;;;;;;;;;;;;17.06;57.66;101138.66;1688600;85;20214;-72
2022/09/04 06:29:01;;;;;;;;;;;;;;;17.11;57.60;101146.98;1688473;84;20217;-72
2022/09/04 06:31:31;;;;;;;;;;;;;;;17.24;57.62;101141.69;1677939;84;20191;-72
2022/09/04 06:34:04;;;;;;;;;;;;;;;17.25;57.51;101142.02;1675812;84;21787;-72
2022/09/04 06:36:37;;;;;;;;;;;;;;;17.26;57.51;101151.78;1674328;84;20515;-72
2022/09/04 06:39:19;;;;;;;;;;;;;;;17.33;57.50;101149.97;1675991;85;20191;-71
2022/09/04 06:42:07;;;;;;;;;;;;;;;17.41;57.50;101141.75;1676034;84;20211;-72
2022/09/04 06:44:52;;;;;;;;;;;;;;;17.40;57.39;101147.32;1675612;84;20220;-72
2022/09/04 06:47:27;;;;;;;;;;;;;;;17.36;57.34;101157.67;1675872;85;21726;-72
2022/09/04 06:50:25;;;;;;;;;;;;;;;17.36;57.34;101162.22;1675494;85;20216;-72
2022/09/04 06:53:00;;;;;;;;;;;;;;;17.40;57.33;101167.55;1676077;85;20716;-73
2022/09/04 06:55:32;;;;;;;;;;;;;;;17.56;57.36;101170.48;1675882;85;20175;-73
2022/09/04 06:58:05;;;;;;;;;;;;;;;17.65;57.27;101164.77;1675973;84;20407;-73
2022/09/04 07:00:40;;;;;;;;;;;;;;;17.64;57.25;101157.69;1676340;85;21124;-73
2022/09/04 07:03:10;;;;;;;;;;;;;;;17.82;57.24;101155.33;1598492;85;20208;-73
2022/09/04 07:06:04;;;;;;;;;;;;;;;17.99;57.11;101163.92;1675984;84;20188;-73
2022/09/04 07:09:00;;;;;;;;;;;;;;;18.08;57.06;101164.09;1658022;85;20195;-72
2022/09/04 07:11:45;;;;;;;;;;;;;;;18.19;56.97;101163.50;1675724;85;20186;-73
2022/09/04 07:14:30;;;;;;;;;;;;;;;18.22;56.87;101167.69;1658839;85;21087;-73
2022/09/04 07:17:05;;;;;;;;;;;;;;;18.35;56.77;101174.48;1675925;84;20187;-73
2022/09/04 07:20:07;;;;;;;;;;;;;;;18.52;56.72;101174.47;1675689;85;20198;-73
2022/09/04 07:22:51;;;;;;;;;;;;;;;18.79;56.64;101174.85;1657858;85;22074;-73
2022/09/04 07:25:33;;;;;;;;;;;;;;;18.97;56.43;101175.61;1675952;84;20510;-73
2022/09/04 07:28:15;;;;;;;;;;;;;;;19.00;56.23;101176.55;1675938;85;21096;-73
2022/09/04 07:31:02;;;;;;;;;;;;;;;19.22;56.19;101173.14;1675815;84;20191;-73
2022/09/04 07:33:35;;;;;;;;;;;;;;;19.25;55.89;101169.51;1675824;84;20171;-73
2022/09/04 07:36:31;;;;;;;;;;;;;;;19.20;55.83;101174.72;1675642;85;20198;-73
2022/09/04 07:39:03;;;;;;;;;;;;;;;19.21;55.58;101175.02;1675951;85;20192;-73
2022/09/04 07:41:36;;;;;;;;;;;;;;;19.26;55.42;101177.11;1674492;84;21158;-73
2022/09/04 07:44:06;;;;;;;;;;;;;;;19.23;55.19;101186.99;1675480;85;20183;-73
2022/09/04 07:46:42;;;;;;;;;;;;;;;19.23;55.02;101181.06;1656694;85;20212;-73
2022/09/04 07:49:21;;;;;;;;;;;;;;;19.43;54.98;101173.81;1673445;84;20258;-73
2022/09/04 07:52:00;;;;;;;;;;;;;;;19.56;54.73;101168.09;1664734;84;20198;-74
2022/09/04 07:54:35;;;;;;;;;;;;;;;19.60;54.64;101177.45;1674605;84;21030;-74
2022/09/04 07:57:22;;;;;;;;;;;;;;;19.69;54.60;101177.54;1671268;85;20503;-74
2022/09/04 08:00:06;;;;;;;;;;;;;;;19.65;54.31;101181.70;1674521;85;20220;-74
2022/09/04 08:02:45;;;;;;;;;;;;;;;19.55;54.11;101183.48;1675162;84;20256;-73
2022/09/04 08:05:31;;;;;;;;;;;;;;;19.51;53.95;101189.52;1664509;84;20202;-73
2022/09/04 08:08:22;;;;;;;;;;;;;;;19.65;53.88;101189.82;1674552;85;21137;-74
2022/09/04 08:10:51;;;;;;;;;;;;;;;19.80;53.77;101193.98;1658822;85;20484;-73
2022/09/04 08:13:34;;;;;;;;;;;;;;;19.86;53.63;101197.70;1675041;85;20506;-73
2022/09/04 08:16:07;;;;;;;;;;;;;;;19.90;53.53;101204.37;1661561;85;20195;-73
2022/09/04 08:18:55;;;;;;;;;;;;;;;20.05;53.35;101204.97;1663082;84;20187;-72
2022/09/04 08:21:27;;;;;;;;;;;;;;;20.18;53.18;101208.98;1662557;85;21617;-72
2022/09/04 08:24:16;;;;;;;;;;;;;;;20.09;52.88;101212.15;1675112;85;20491;-73
2022/09/04 08:27:16;;;;;;;;;;;;;;;19.96;52.77;101211.64;1674985;85;20195;-72
2022/09/04 08:30:07;;;;;;;;;;;;;;;20.03;52.61;101216.52;1674655;85;20353;-73
2022/09/04 08:32:49;;;;;;;;;;;;;;;20.04;52.49;101214.13;1675148;84;20223;-73
2022/09/04 08:35:40;;;;;;;;;;;;;;;20.23;52.31;101218.64;1675294;85;21056;-69
2022/09/04 08:38:12;;;;;;;;;;;;;;;20.16;52.09;101215.12;1664205;84;20191;-67
2022/09/04 08:41:07;;;;;;;;;;;;;;;20.29;52.02;101220.55;1675194;84;20199;-67
2022/09/04 08:44:00;;;;;;;;;;;;;;;20.19;51.74;101228.27;1674894;84;20221;-67
2022/09/04 08:46:35;;;;;;;;;;;;;;;20.27;51.74;101213.63;1674205;84;20174;-67
2022/09/04 08:49:25;;;;;;;;;;;;;;;20.47;51.72;101213.61;1669983;84;21982;-67
2022/09/04 08:52:10;;;;;;;;;;;;;;;20.56;51.57;101220.44;1674285;84;20207;-67
2022/09/04 08:54:57;;;;;;;;;;;;;;;20.50;51.25;101204.53;1677239;84;20193;-67
2022/09/04 08:57:56;;;;;;;;;;;;;;;20.43;51.13;101215.40;1679930;83;20175;-67
2022/09/04 09:00:35;;;;;;;;;;;;;;;20.51;51.13;101219.75;1686875;84;20193;-68
2022/09/04 09:03:10;;;;;;;;;;;;;;;20.62;50.91;101229.09;1682792;84;21124;-68
2022/09/04 09:06:14;;;;;;;;;;;;;;;20.63;50.80;101230.21;1682172;84;20489;-67
2022/09/04 09:08:59;;;;;;;;;;;;;;;20.70;50.73;101236.95;1673032;84;20178;-67
2022/09/04 09:12:00;;;;;;;;;;;;;;;20.81;50.61;101234.92;1673068;84;20191;-70
2022/09/04 09:14:30;;;;;;;;;;;;;;;20.91;50.53;101238.00;1678823;84;20161;-70
2022/09/04 09:17:17;;;;;;;;;;;;;;;20.91;50.22;101238.00;1677167;84;21119;-70
2022/09/04 09:19:52;;;;;;;;;;;;;;;20.83;49.80;101240.95;1667919;85;20195;-70
2022/09/04 09:22:47;;;;;;;;;;;;;;;20.81;49.49;101236.28;1675088;85;20211;-70
2022/09/04 09:25:21;;;;;;;;;;;;;;;20.73;49.14;101227.03;1673524;84;20214;-70
2022/09/04 09:27:59;;;;;;;;;;;;;;;20.83;49.02;101238.23;1675284;85;20681;-71
2022/09/04 09:30:25;;;;;;;;;;;;;;;20.90;48.89;101230.90;1670654;85;21537;-71
2022/09/04 09:33:14;;;;;;;;;;;;;;;20.83;48.70;101224.16;1686033;84;20229;-70
2022/09/04 09:35:54;;;;;;;;;;;;;;;20.82;48.63;101235.24;1688374;85;20648;-71
2022/09/04 09:38:18;;;;;;;;;;;;;;;20.79;48.41;101230.25;1687220;83;20377;-70
2022/09/04 09:41:14;;;;;;;;;;;;;;;20.86;48.38;101234.56;1688395;84;20226;-70
2022/09/04 09:43:45;;;;;;;;;;;;;;;20.95;48.35;101232.45;1688495;83;21084;-70
2022/09/04 09:46:27;;;;;;;;;;;;;;;20.92;48.07;101235.59;1688314;84;20191;-70
2022/09/04 09:49:05;;;;;;;;;;;;;;;20.95;47.97;101236.52;1688603;84;20199;-70
2022/09/04 09:51:38;;;;;;;;;;;;;;;21.06;47.89;101224.98;1670503;85;20223;-70
2022/09/04 09:54:29;;;;;;;;;;;;;;;21.26;47.72;101229.77;1650911;85;20219;-70
2022/09/04 09:57:27;;;;;;;;;;;;;;;21.16;47.64;101224.00;1688683;83;21156;-71
2022/09/04 10:00:05;;;;;;;;;;;;;;;21.24;47.61;101235.12;1688509;84;20522;-68
2022/09/04 10:02:59;;;;;;;;;;;;;;;21.29;47.47;101236.11;1688409;84;20203;-69
2022/09/04 10:05:51;;;;;;;;;;;;;;;21.28;47.36;101235.83;1674154;85;20388;-68
2022/09/04 10:08:38;;;;;;;;;;;;;;;21.31;47.20;101231.31;1688365;84;20231;-70
2022/09/04 10:11:42;;;;;;;;;;;;;;;21.20;46.89;101232.02;1688521;83;21849;-69
2022/09/04 10:14:40;;;;;;;;;;;;;;;21.13;46.76;101225.80;1671009;85;20478;-69
2022/09/04 10:17:34;;;;;;;;;;;;;;;21.32;46.65;101230.80;1688439;85;20194;-69
2022/09/04 10:20:24;;;;;;;;;;;;;;;21.37;46.53;101234.50;1687439;85;20183;-69
2022/09/04 10:23:06;;;;;;;;;;;;;;;21.41;46.31;101242.50;1673597;85;20543;-69
2022/09/04 10:26:00;;;;;;;;;;;;;;;21.39;46.21;101232.93;1688174;83;21294;-69
2022/09/04 10:28:41;;;;;;;;;;;;;;;21.24;46.19;101233.24;1687565;83;20191;-69
2022/09/04 10:31:17;;;;;;;;;;;;;;;21.21;46.24;101239.11;1681548;84;20477;-69
2022/09/04 10:33:49;;;;;;;;;;;;;;;21.25;46.17;101238.95;1655266;85;20188;-69
2022/09/04 10:36:31;;;;;;;;;;;;;;;21.29;46.01;101234.75;1659739;84;20187;-69
2022/09/04 10:42:28;;;;;;;;;;;;;;;21.40;45.79;101238.64;1668531;85;20208;-69
2022/09/04 10:45:10;;;;;;;;;;;;;;;21.38;45.45;101238.05;1676270;85;20195;-69
2022/09/04 10:47:54;;;;;;;;;;;;;;;21.37;45.42;101236.38;1663508;85;20192;-68
2022/09/04 10:50:34;;;;;;;;;;;;;;;21.34;45.28;101225.44;1675721;85;20203;-69
2022/09/04 10:53:35;;;;;;;;;;;;;;;21.36;45.27;101224.69;1662098;85;22042;-69
2022/09/04 10:56:15;;;;;;;;;;;;;;;21.41;45.24;101228.94;1652457;85;20384;-69
2022/09/04 10:59:11;;;;;;;;;;;;;;;21.46;45.06;101224.73;1649585;85;20217;-69
2022/09/04 11:01:53;;;;;;;;;;;;;;;21.43;44.92;101218.39;1657409;85;20187;-68
2022/09/04 11:04:44;;;;;;;;;;;;;;;21.50;44.80;101211.03;1673361;85;20207;-69
2022/09/04 11:07:15;;;;;;;;;;;;;;;21.43;44.38;101213.25;1673999;84;21127;-69
2022/09/04 11:10:09;;;;;;;;;;;;;;;21.39;44.21;101213.38;1655956;84;20189;-69
2022/09/04 11:12:57;;;;;;;;;;;;;;;21.37;44.05;101220.92;1657686;85;20215;-69
2022/09/04 11:15:46;;;;;;;;;;;;;;;21.45;43.83;101225.77;1672405;85;20500;-69
2022/09/04 11:18:27;;;;;;;;;;;;;;;21.44;43.68;101220.87;1673281;85;20187;-69
2022/09/04 11:20:59;;;;;;;;;;;;;;;21.39;43.65;101210.67;1655451;85;21187;-69
2022/09/04 11:23:35;;;;;;;;;;;;;;;21.51;43.84;101208.59;1652899;85;20176;-69
2022/09/04 11:26:10;;;;;;;;;;;;;;;21.70;43.90;101217.11;1673553;85;20198;-70
2022/09/04 11:29:00;;;;;;;;;;;;;;;21.81;43.95;101213.11;1669294;85;20207;-69
2022/09/04 11:31:47;;;;;;;;;;;;;;;21.87;43.71;101211.41;1674429;85;20187;-70
2022/09/04 11:34:45;;;;;;;;;;;;;;;21.79;43.40;101207.61;1677456;85;21077;-70
2022/09/04 11:37:24;;;;;;;;;;;;;;;21.76;43.24;101207.54;1678080;85;20226;-70
2022/09/04 11:40:02;;;;;;;;;;;;;;;21.71;43.15;101209.28;1678213;85;20491;-70
2022/09/04 11:42:39;;;;;;;;;;;;;;;21.68;43.16;101209.69;1647621;85;20505;-70
2022/09/04 11:45:37;;;;;;;;;;;;;;;21.56;43.21;101203.34;1678047;84;20204;-69
2022/09/04 11:48:26;;;;;;;;;;;;;;;21.57;43.38;101199.59;1657635;85;21144;-70
2022/09/04 11:51:18;;;;;;;;;;;;;;;21.76;43.58;101207.54;1656268;85;20234;-70
2022/09/04 11:54:10;;;;;;;;;;;;;;;21.95;43.47;101200.30;1653371;85;20209;-70
2022/09/04 11:57:12;;;;;;;;;;;;;;;21.94;43.36;101209.48;1652669;85;20190;-70
2022/09/04 12:00:01;;;;;;;;;;;;;;;22.08;43.45;101202.86;1652913;85;20201;-69
2022/09/04 12:02:51;;;;;;;;;;;;;;;21.99;43.34;101217.77;1651315;84;21199;-70
2022/09/04 12:05:40;;;;;;;;;;;;;;;21.98;43.47;101212.06;1673389;85;20179;-70
2022/09/04 12:08:16;;;;;;;;;;;;;;;21.99;43.47;101212.34;1666710;84;20225;-70
2022/09/04 12:11:06;;;;;;;;;;;;;;;22.04;43.55;101212.52;1662895;85;20642;-70
2022/09/04 12:13:56;;;;;;;;;;;;;;;22.05;43.65;101197.88;1672239;85;20561;-70
2022/09/04 12:16:50;;;;;;;;;;;;;;;22.11;43.49;101220.59;1677842;85;21762;-70
2022/09/04 12:19:31;;;;;;;;;;;;;;;22.05;43.22;101208.75;1670125;85;20206;-70
2022/09/04 12:22:25;;;;;;;;;;;;;;;22.09;43.19;101208.61;1678240;85;20183;-70
2022/09/04 12:25:12;;;;;;;;;;;;;;;22.09;43.06;101199.09;1677822;85;20527;-70
2022/09/04 12:28:15;;;;;;;;;;;;;;;22.19;43.08;101210.27;1667801;85;20215;-70
2022/09/04 12:31:03;;;;;;;;;;;;;;;22.11;43.00;101214.62;1675332;85;21967;-70
2022/09/04 12:33:45;;;;;;;;;;;;;;;22.00;43.03;101211.30;1671959;84;20215;-70
2022/09/04 12:36:15;;;;;;;;;;;;;;;22.12;43.02;101216.30;1678875;85;20223;-70
2022/09/04 12:39:02;;;;;;;;;;;;;;;22.15;43.02;101216.37;1677969;84;20216;-70
2022/09/04 12:41:53;;;;;;;;;;;;;;;22.05;43.00;101217.42;1678221;84;20183;-70
2022/09/04 12:44:31;;;;;;;;;;;;;;;22.04;43.02;101217.95;1664090;84;21150;-70
2022/09/04 12:47:12;;;;;;;;;;;;;;;22.08;43.03;101221.88;1672068;85;20195;-70
2022/09/04 12:49:44;;;;;;;;;;;;;;;22.15;42.95;101224.52;1633100;88;20155;-70
2022/09/04 12:52:32;;;;;;;;;;;;;;;22.10;42.92;101220.28;1678186;85;20320;-70
2022/09/04 12:55:11;;;;;;;;;;;;;;;22.11;42.98;101222.78;1678219;84;20230;-70
2022/09/04 12:58:13;;;;;;;;;;;;;;;22.15;43.07;101222.64;1677814;84;21288;-69
2022/09/04 13:00:46;;;;;;;;;;;;;;;22.12;43.01;101230.41;1678032;85;20522;-70
2022/09/04 13:03:48;;;;;;;;;;;;;;;22.00;43.04;101228.95;1676034;84;20533;-70
2022/09/04 13:06:27;;;;;;;;;;;;;;;21.95;43.14;101238.32;1678209;85;20502;-69
2022/09/04 13:09:12;;;;;;;;;;;;;;;21.82;43.20;101234.31;1669728;85;20180;-70
2022/09/04 13:12:09;;;;;;;;;;;;;;;21.80;43.29;101226.94;1594973;85;21044;-70
2022/09/04 13:15:18;;;;;;;;;;;;;;;21.97;43.43;101225.33;1678076;85;20191;-70
2022/09/04 13:17:57;;;;;;;;;;;;;;;22.17;43.39;101225.95;1662608;85;20187;-70
2022/09/04 13:20:39;;;;;;;;;;;;;;;22.32;43.36;101229.13;1678146;85;20215;-69
2022/09/04 13:23:43;;;;;;;;;;;;;;;22.32;43.18;101225.58;1678165;85;20202;-70
2022/09/04 13:26:37;;;;;;;;;;;;;;;22.32;43.05;101227.77;1606646;88;21145;-70
2022/09/04 13:29:07;;;;;;;;;;;;;;;22.29;42.96;101226.87;1596528;88;20607;-70
2022/09/04 13:32:02;;;;;;;;;;;;;;;22.36;42.89;101232.23;1600600;89;20164;-70
2022/09/04 13:34:48;;;;;;;;;;;;;;;22.34;42.88;101237.07;1644978;84;20573;-70
2022/09/04 13:37:22;;;;;;;;;;;;;;;22.26;42.70;101240.08;1677246;85;20199;-70
2022/09/04 13:40:07;;;;;;;;;;;;;;;22.24;42.66;101232.14;1678056;84;21859;-70
2022/09/04 13:42:45;;;;;;;;;;;;;;;22.27;42.64;101227.61;1678035;85;20203;-70
2022/09/04 13:45:22;;;;;;;;;;;;;;;22.30;42.59;101224.98;1678148;85;20518;-70
2022/09/04 13:47:55;;;;;;;;;;;;;;;22.35;42.62;101228.67;1678182;85;20522;-70
2022/09/04 13:50:23;;;;;;;;;;;;;;;22.29;42.45;101221.44;1656318;85;20221;-70
2022/09/04 13:53:17;;;;;;;;;;;;;;;22.38;42.58;101236.37;1647735;85;21100;-70
2022/09/04 13:55:50;;;;;;;;;;;;;;;22.47;42.53;101226.03;1652318;85;20190;-70
2022/09/04 13:58:18;;;;;;;;;;;;;;;22.47;42.41;101230.63;1634372;85;20194;-70